KEFD/EFD METAR and TAF weather

Enter ICAO airport designator
Station Type Date Time Source
KEFD METAR 2020/08/11 17:50 UTC NOAA

KEFD 111750Z 19007KT 10SM SCT040 34/24 A2998


Station Type Date Time Source
KEFD Decoded METAR 2020/08/11 17:50 UTC NOAA

Houston / Ellington, TX, United States (KEFD) 29-36N 095-10W
Aug 11, 2020 - 01:50 PM EDT / 2020.08.11 1750 UTC
Wind: from the S (190 degrees) at 8 MPH (7 KT):0
Visibility: 10 mile(s):0
Sky conditions: partly cloudy
Temperature: 93 F (34 C)
Heat index: 104.5 F (40.3 C):1
Dew Point: 75 F (24 C)
Relative Humidity: 56%
Pressure (altimeter): 29.98 in. Hg (1015 hPa)
ob: KEFD 111750Z 19007KT 10SM SCT040 34/24 A2998
cycle: 18

Station Type Date Time Source
KEFD TAF 2020/08/11 14:48 UTC NOAA

TAF
AMD KEFD 111426Z 1114/1218 VRB06KT 9999 FEW030 QNH2995INS
BECMG 1118/1119 16009KT 8000 -SHRA BKN040 QNH2988INS
BECMG 1200/1201 15009KT 9999 NSW SKC QNH2991INS TX34/1121Z TN25/1211Z

Example: see airport list